createdAt,value
2022-11-16T00:04:29.325Z,11.76
2022-11-16T00:09:33.038Z,12.65
2022-11-16T00:14:36.658Z,12.88
2022-11-16T00:19:40.411Z,10.94
2022-11-16T00:24:43.411Z,11.10
2022-11-16T00:29:46.324Z,12.49
2022-11-16T00:34:49.301Z,13.01
2022-11-16T00:39:52.289Z,12.05
2022-11-16T00:44:55.384Z,11.01
2022-11-16T00:49:58.304Z,12.46
2022-11-16T00:55:01.276Z,13.02
2022-11-16T01:00:05.677Z,11.72
2022-11-16T01:05:10.765Z,10.75
2022-11-16T01:10:17.544Z,12.06
2022-11-16T01:15:22.510Z,12.49
2022-11-16T01:20:29.667Z,12.74
2022-11-16T01:25:33.171Z,11.23
2022-11-16T01:30:36.147Z,11.70
2022-11-16T01:35:44.010Z,12.68
2022-11-16T01:40:46.972Z,12.12
2022-11-16T01:45:50.939Z,11.46
2022-11-16T01:50:55.347Z,12.44
2022-11-16T01:55:58.331Z,12.42
2022-11-16T02:01:01.346Z,10.65
2022-11-16T02:06:13.507Z,12.14
2022-11-16T02:11:36.592Z,12.55
2022-11-16T02:16:57.787Z,10.38
2022-11-16T02:22:16.739Z,10.77
2022-11-16T02:27:19.534Z,11.87
2022-11-16T02:32:30.074Z,12.07
2022-11-16T02:37:38.410Z,12.32
2022-11-16T02:42:51.894Z,10.42
2022-11-16T02:48:03.442Z,10.54
2022-11-16T02:53:06.336Z,11.71
2022-11-16T02:58:17.209Z,10.33
2022-11-16T03:03:43.461Z,10.87
2022-11-16T03:09:15.220Z,10.83
2022-11-16T03:14:22.710Z,9.76
2022-11-16T03:19:45.726Z,11.63
2022-11-16T03:24:48.587Z,9.74
2022-11-16T03:30:00.757Z,9.71
2022-11-16T03:35:11.091Z,10.83
2022-11-16T03:40:14.549Z,8.74
2022-11-16T03:45:18.939Z,9.65
2022-11-16T03:50:22.093Z,10.85
2022-11-16T03:55:24.999Z,8.93
2022-11-16T04:00:27.807Z,9.87
2022-11-16T04:05:49.300Z,10.12
2022-11-16T04:11:10.531Z,8.29
2022-11-16T04:16:32.068Z,10.42
2022-11-16T04:21:58.287Z,10.57
2022-11-16T04:27:23.504Z,9.35
2022-11-16T04:32:45.392Z,10.64
2022-11-16T04:37:52.533Z,9.73
2022-11-16T04:43:14.159Z,10.90
2022-11-16T04:48:19.554Z,8.71
2022-11-16T04:53:25.023Z,9.33
2022-11-16T04:58:27.800Z,10.58
2022-11-16T05:03:30.757Z,8.71
2022-11-16T05:08:33.775Z,10.32
2022-11-16T05:13:36.805Z,10.28
2022-11-16T05:18:39.567Z,8.30
2022-11-16T05:24:01.112Z,9.91
2022-11-16T05:29:04.120Z,10.00
2022-11-16T05:34:06.857Z,8.29
2022-11-16T05:39:11.998Z,10.20
2022-11-16T05:44:16.144Z,9.44
2022-11-16T05:49:19.464Z,8.48
2022-11-16T05:54:24.986Z,10.52
2022-11-16T05:59:29.442Z,8.79
2022-11-16T06:04:33.073Z,9.89
2022-11-16T06:09:36.319Z,10.51
2022-11-16T06:14:39.156Z,8.60
2022-11-16T06:19:42.198Z,9.93
2022-11-16T06:24:46.595Z,10.47
2022-11-16T06:29:49.344Z,7.93
2022-11-16T06:34:52.539Z,8.22
2022-11-16T06:39:55.346Z,10.19
2022-11-16T06:44:58.161Z,8.21
2022-11-16T06:50:01.233Z,9.07
2022-11-16T06:55:04.983Z,9.59
2022-11-16T07:00:10.789Z,7.54
2022-11-16T07:05:13.572Z,9.25
2022-11-16T07:10:16.598Z,9.35
2022-11-16T07:15:19.914Z,7.70
2022-11-16T07:20:23.160Z,9.49
2022-11-16T07:25:25.963Z,8.11
2022-11-16T07:30:28.901Z,7.81
2022-11-16T07:35:31.792Z,9.28
2022-11-16T07:40:34.645Z,7.50
2022-11-16T07:45:37.769Z,8.50
2022-11-16T07:50:40.606Z,9.24
2022-11-16T07:55:53.782Z,8.06
2022-11-16T08:01:12.887Z,9.10
2022-11-16T08:06:23.950Z,7.33
2022-11-16T08:11:27.976Z,8.07
2022-11-16T08:16:33.362Z,8.42
2022-11-16T08:21:36.563Z,6.78
2022-11-16T08:26:39.428Z,8.18
2022-11-16T08:31:44.679Z,7.26
2022-11-16T08:36:47.667Z,7.25
2022-11-16T08:41:50.963Z,8.35
2022-11-16T08:46:53.944Z,6.67
2022-11-16T08:51:59.814Z,7.70
2022-11-16T08:57:03.187Z,8.22
2022-11-16T09:02:06.567Z,7.36
2022-11-16T09:07:10.276Z,7.99
2022-11-16T09:12:13.250Z,6.67
2022-11-16T09:17:21.765Z,7.95
2022-11-16T09:22:26.027Z,6.60
2022-11-16T09:27:28.833Z,7.35
2022-11-16T09:32:31.643Z,8.01
2022-11-16T09:37:34.535Z,6.14
2022-11-16T09:42:46.537Z,7.46
2022-11-16T09:48:01.594Z,6.87
2022-11-16T09:53:20.682Z,7.44
2022-11-16T09:58:52.777Z,6.51
2022-11-16T10:04:19.981Z,7.26
2022-11-16T10:09:23.474Z,7.37
2022-11-16T10:14:38.373Z,7.19
2022-11-16T10:20:06.703Z,7.52
2022-11-16T10:25:29.198Z,5.95
2022-11-16T10:30:59.967Z,7.46
2022-11-16T10:36:13.296Z,6.18
2022-11-16T10:41:35.645Z,6.27
2022-11-16T10:46:56.146Z,7.79
2022-11-16T10:51:59.143Z,6.18
2022-11-16T10:57:14.076Z,7.75
2022-11-16T11:02:31.500Z,6.76
2022-11-16T11:07:40.507Z,5.83
2022-11-16T11:13:02.523Z,7.56
2022-11-16T11:18:23.791Z,6.35
2022-11-16T11:23:27.786Z,6.86
2022-11-16T11:28:33.718Z,6.94
2022-11-16T11:33:42.124Z,5.30
2022-11-16T11:39:04.695Z,6.82
2022-11-16T11:44:13.348Z,7.42
2022-11-16T11:49:22.081Z,5.81
2022-11-16T11:54:31.365Z,7.38
2022-11-16T11:59:35.694Z,6.19
2022-11-16T12:05:06.855Z,6.20
2022-11-16T12:10:21.406Z,7.59
2022-11-16T12:15:39.477Z,5.61
2022-11-16T12:21:08.650Z,6.86
2022-11-16T12:26:26.919Z,6.36
2022-11-16T12:31:43.130Z,6.08
2022-11-16T12:37:00.056Z,6.69
2022-11-16T12:42:05.906Z,5.43
2022-11-16T12:47:31.721Z,6.64
2022-11-16T12:52:52.951Z,5.39
2022-11-16T12:58:13.463Z,6.82
2022-11-16T13:03:33.982Z,6.46
2022-11-16T13:09:04.693Z,4.92
2022-11-16T13:14:38.125Z,6.55
2022-11-16T13:19:47.147Z,5.76
2022-11-16T13:25:03.341Z,5.47
2022-11-16T13:30:24.807Z,6.96
2022-11-16T13:35:28.248Z,5.21
2022-11-16T13:40:33.537Z,5.92
2022-11-16T13:46:00.260Z,6.23
2022-11-16T13:51:06.369Z,5.92
2022-11-16T13:56:09.575Z,6.44
2022-11-16T14:01:14.560Z,4.99
2022-11-16T14:06:20.174Z,6.41
2022-11-16T14:11:35.185Z,6.33
2022-11-16T14:16:49.274Z,5.11
2022-11-16T14:22:03.275Z,6.92
2022-11-16T14:27:09.543Z,5.64
2022-11-16T14:32:32.605Z,5.56
2022-11-16T14:37:40.430Z,6.57
2022-11-16T14:43:15.487Z,4.91
2022-11-16T14:48:20.997Z,5.38
2022-11-16T14:53:25.125Z,6.61
2022-11-16T14:58:28.835Z,5.20
2022-11-16T15:03:37.166Z,5.11
2022-11-16T15:08:51.840Z,6.43
2022-11-16T15:13:55.495Z,4.87
2022-11-16T15:19:02.386Z,5.82
2022-11-16T15:24:29.489Z,6.36
2022-11-16T15:29:28.378Z,4.79
2022-11-16T15:34:32.725Z,5.96
2022-11-16T15:39:36.641Z,6.83
2022-11-16T15:44:39.686Z,5.09
2022-11-16T15:49:44.162Z,4.68
2022-11-16T15:55:04.058Z,6.14
2022-11-16T16:00:21.543Z,4.78
2022-11-16T16:05:39.931Z,6.35
2022-11-16T16:10:42.795Z,5.64
2022-11-16T16:15:45.642Z,5.33
2022-11-16T16:20:49.172Z,6.34
2022-11-16T16:25:51.978Z,4.83
2022-11-16T16:30:54.997Z,5.29
2022-11-16T16:35:57.743Z,6.94
2022-11-16T16:41:05.174Z,5.29
2022-11-16T16:46:13.153Z,5.53
2022-11-16T16:51:15.926Z,7.16
2022-11-16T16:56:20.266Z,5.35
2022-11-16T17:01:26.919Z,5.35
2022-11-16T17:06:31.411Z,7.02
2022-11-16T17:11:34.605Z,5.28
2022-11-16T17:16:37.492Z,4.80
2022-11-16T17:21:48.628Z,7.53
2022-11-16T17:27:08.231Z,5.95
2022-11-16T17:32:14.439Z,5.27
2022-11-16T17:37:17.243Z,7.45
2022-11-16T17:42:20.030Z,5.74
2022-11-16T17:47:24.315Z,4.41
2022-11-16T17:52:27.583Z,6.35
2022-11-16T17:57:32.123Z,7.08
2022-11-16T18:02:34.956Z,4.96
2022-11-16T18:07:39.292Z,5.30
2022-11-16T18:12:42.133Z,7.04
2022-11-16T18:17:46.248Z,5.14
2022-11-16T18:22:49.033Z,4.88
2022-11-16T18:27:55.689Z,7.54
2022-11-16T18:32:58.579Z,6.09
2022-11-16T18:38:02.211Z,4.54
2022-11-16T18:43:07.027Z,5.57
2022-11-16T18:48:09.805Z,7.17
2022-11-16T18:53:12.565Z,5.23
2022-11-16T18:58:43.516Z,4.98
2022-11-16T19:03:38.698Z,7.26
2022-11-16T19:08:44.037Z,5.42
2022-11-16T19:13:52.065Z,5.85
2022-11-16T19:18:55.299Z,7.17
2022-11-16T19:23:58.500Z,5.31
2022-11-16T19:29:04.342Z,5.48
2022-11-16T19:34:11.466Z,6.35
2022-11-16T19:39:14.327Z,4.78
2022-11-16T19:44:20.289Z,4.98
2022-11-16T19:49:23.664Z,6.35
2022-11-16T19:54:30.572Z,4.97
2022-11-16T19:59:34.556Z,5.57
2022-11-16T20:04:37.290Z,6.75
2022-11-16T20:09:40.110Z,5.05
2022-11-16T20:14:42.923Z,5.51
2022-11-16T20:19:45.691Z,6.72
2022-11-16T20:24:52.479Z,5.02
2022-11-16T20:29:56.977Z,5.67
2022-11-16T20:34:59.795Z,6.51
2022-11-16T20:40:04.748Z,4.86
2022-11-16T20:45:08.715Z,4.04
2022-11-16T20:50:11.582Z,6.13
2022-11-16T20:55:14.596Z,6.33
2022-11-16T21:00:19.992Z,4.70
2022-11-16T21:05:22.761Z,4.01
2022-11-16T21:10:26.299Z,5.89
2022-11-16T21:15:29.124Z,5.86
2022-11-16T21:20:31.918Z,4.48
2022-11-16T21:25:34.675Z,4.51
2022-11-16T21:30:37.506Z,6.25
2022-11-16T21:35:40.271Z,4.75
2022-11-16T21:40:44.258Z,4.66
2022-11-16T21:45:48.639Z,6.14
2022-11-16T21:51:03.563Z,4.76
2022-11-16T21:56:08.486Z,5.25
2022-11-16T22:01:13.557Z,5.84
2022-11-16T22:06:35.422Z,4.50
2022-11-16T22:17:16.567Z,4.99
2022-11-16T22:22:20.083Z,4.00
2022-11-16T22:27:23.121Z,5.69
2022-11-16T22:32:26.047Z,5.21
2022-11-16T22:37:28.943Z,4.51
2022-11-16T22:42:31.935Z,6.46
2022-11-16T22:47:35.969Z,5.39
2022-11-16T22:52:42.058Z,4.10
2022-11-16T22:57:45.362Z,5.16
2022-11-16T23:02:48.360Z,6.22
2022-11-16T23:07:51.371Z,4.61
2022-11-16T23:13:32.987Z,5.02
2022-11-16T23:18:36.394Z,5.27
2022-11-16T23:23:58.121Z,4.07
2022-11-16T23:29:03.598Z,4.62
2022-11-16T23:34:06.593Z,6.55
2022-11-16T23:39:09.464Z,5.02
2022-11-16T23:44:12.410Z,3.83
2022-11-16T23:49:15.304Z,4.83
2022-11-16T23:54:18.244Z,5.46
2022-11-16T23:59:21.257Z,4.15
